Terminal Aerodrome Forecast
Issued by NWS Pocatello, ID

Home | Current Version | Previous Version | Text Only | Print | Product List | Glossary On
Versions: 1 2 3 4 5 6 7 8 9 10 11 12
064
FTUS45 KPIH 200520
TAFBYI
TAF
KBYI 200520Z 2006/2106 23006KT P6SM SKC
     FM201800 27010KT P6SM SKC
     FM210300 22008KT P6SM SCT200=

USA.gov is the U.S. government's official web portal to all federal, state and local government web resources and services.